sensor_id;sensor_type;location;lat;lon;timestamp;temperature;humidity
19813;DHT22;10066;48.108;11.448;2022-11-04T00:01:38;12.20;99.90
19813;DHT22;10066;48.108;11.448;2022-11-04T00:04:07;12.20;99.90
19813;DHT22;10066;48.108;11.448;2022-11-04T00:06:35;12.20;99.90
19813;DHT22;10066;48.108;11.448;2022-11-04T00:09:03;12.20;99.90
19813;DHT22;10066;48.108;11.448;2022-11-04T00:11:32;12.30;99.90
19813;DHT22;10066;48.108;11.448;2022-11-04T00:14:16;12.30;99.90
19813;DHT22;10066;48.108;11.448;2022-11-04T00:16:43;12.30;99.90
19813;DHT22;10066;48.108;11.448;2022-11-04T00:19:28;12.30;99.90
19813;DHT22;10066;48.108;11.448;2022-11-04T00:22:16;12.30;99.90
19813;DHT22;10066;48.108;11.448;2022-11-04T00:25:00;12.30;99.90
19813;DHT22;10066;48.108;11.448;2022-11-04T00:27:45;12.30;99.90
19813;DHT22;10066;48.108;11.448;2022-11-04T00:30:29;12.20;99.90
19813;DHT22;10066;48.108;11.448;2022-11-04T00:32:56;12.20;99.90
19813;DHT22;10066;48.108;11.448;2022-11-04T00:35:47;12.20;99.90
19813;DHT22;10066;48.108;11.448;2022-11-04T00:38:14;12.20;99.90
19813;DHT22;10066;48.108;11.448;2022-11-04T00:40:41;12.10;99.90
19813;DHT22;10066;48.108;11.448;2022-11-04T00:43:08;12.10;99.90
19813;DHT22;10066;48.108;11.448;2022-11-04T00:45:35;12.10;99.90
19813;DHT22;10066;48.108;11.448;2022-11-04T00:48:02;12.00;99.90
19813;DHT22;10066;48.108;11.448;2022-11-04T00:50:29;12.00;99.90
19813;DHT22;10066;48.108;11.448;2022-11-04T00:52:59;11.90;99.90
19813;DHT22;10066;48.108;11.448;2022-11-04T00:55:26;11.90;99.90
19813;DHT22;10066;48.108;11.448;2022-11-04T00:57:54;11.90;99.90
19813;DHT22;10066;48.108;11.448;2022-11-04T01:00:21;11.80;99.90
19813;DHT22;10066;48.108;11.448;2022-11-04T01:02:48;11.80;99.90
19813;DHT22;10066;48.108;11.448;2022-11-04T01:05:15;11.70;99.90
19813;DHT22;10066;48.108;11.448;2022-11-04T01:07:42;11.70;99.90
19813;DHT22;10066;48.108;11.448;2022-11-04T01:10:10;11.60;99.90
19813;DHT22;10066;48.108;11.448;2022-11-04T01:12:37;11.50;99.90
19813;DHT22;10066;48.108;11.448;2022-11-04T01:15:05;11.40;99.90
19813;DHT22;10066;48.108;11.448;2022-11-04T01:17:33;11.30;99.90
19813;DHT22;10066;48.108;11.448;2022-11-04T01:19:59;11.20;99.90
19813;DHT22;10066;48.108;11.448;2022-11-04T01:22:26;11.10;99.90
19813;DHT22;10066;48.108;11.448;2022-11-04T01:24:53;11.00;99.90
19813;DHT22;10066;48.108;11.448;2022-11-04T01:27:22;10.90;99.90
19813;DHT22;10066;48.108;11.448;2022-11-04T01:29:49;10.80;99.90
19813;DHT22;10066;48.108;11.448;2022-11-04T01:32:16;10.70;99.90
19813;DHT22;10066;48.108;11.448;2022-11-04T01:34:43;10.60;99.90
19813;DHT22;10066;48.108;11.448;2022-11-04T01:39:37;10.50;99.90
19813;DHT22;10066;48.108;11.448;2022-11-04T01:42:04;10.40;99.90
19813;DHT22;10066;48.108;11.448;2022-11-04T01:44:52;10.40;99.90
19813;DHT22;10066;48.108;11.448;2022-11-04T01:47:23;10.30;99.90
19813;DHT22;10066;48.108;11.448;2022-11-04T01:49:53;10.30;99.90
19813;DHT22;10066;48.108;11.448;2022-11-04T01:52:27;10.20;99.90
19813;DHT22;10066;48.108;11.448;2022-11-04T01:54:59;10.20;99.90
19813;DHT22;10066;48.108;11.448;2022-11-04T01:57:31;10.20;99.90
19813;DHT22;10066;48.108;11.448;2022-11-04T02:00:04;10.20;99.90
19813;DHT22;10066;48.108;11.448;2022-11-04T02:02:31;10.20;99.90
19813;DHT22;10066;48.108;11.448;2022-11-04T02:04:59;10.10;99.90
19813;DHT22;10066;48.108;11.448;2022-11-04T02:07:26;10.10;99.90
19813;DHT22;10066;48.108;11.448;2022-11-04T02:09:55;10.10;99.90
19813;DHT22;10066;48.108;11.448;2022-11-04T02:12:24;10.10;99.90
19813;DHT22;10066;48.108;11.448;2022-11-04T02:15:10;10.10;99.90
19813;DHT22;10066;48.108;11.448;2022-11-04T02:17:57;10.00;99.90
19813;DHT22;10066;48.108;11.448;2022-11-04T02:20:35;10.00;99.90
19813;DHT22;10066;48.108;11.448;2022-11-04T02:23:31;10.00;99.90
19813;DHT22;10066;48.108;11.448;2022-11-04T02:26:36;10.00;99.90
19813;DHT22;10066;48.108;11.448;2022-11-04T02:29:32;9.90;99.90
19813;DHT22;10066;48.108;11.448;2022-11-04T02:32:08;10.00;99.90
19813;DHT22;10066;48.108;11.448;2022-11-04T02:34:42;10.00;99.90
19813;DHT22;10066;48.108;11.448;2022-11-04T02:37:19;10.00;99.90
19813;DHT22;10066;48.108;11.448;2022-11-04T02:39:54;10.00;99.90
19813;DHT22;10066;48.108;11.448;2022-11-04T02:42:27;9.90;99.90
19813;DHT22;10066;48.108;11.448;2022-11-04T02:45:06;9.90;99.90
19813;DHT22;10066;48.108;11.448;2022-11-04T02:47:39;9.90;99.90
19813;DHT22;10066;48.108;11.448;2022-11-04T02:50:11;9.90;99.90
19813;DHT22;10066;48.108;11.448;2022-11-04T02:52:44;9.90;99.90
19813;DHT22;10066;48.108;11.448;2022-11-04T02:55:18;9.80;99.90
19813;DHT22;10066;48.108;11.448;2022-11-04T02:57:47;9.80;99.90
19813;DHT22;10066;48.108;11.448;2022-11-04T03:00:18;9.80;99.90
19813;DHT22;10066;48.108;11.448;2022-11-04T03:02:50;9.80;99.90
19813;DHT22;10066;48.108;11.448;2022-11-04T03:05:20;9.80;99.90
19813;DHT22;10066;48.108;11.448;2022-11-04T03:07:50;9.80;99.90
19813;DHT22;10066;48.108;11.448;2022-11-04T03:10:22;9.80;99.90
19813;DHT22;10066;48.108;11.448;2022-11-04T03:12:55;9.80;99.90
19813;DHT22;10066;48.108;11.448;2022-11-04T03:15:28;9.70;99.90
19813;DHT22;10066;48.108;11.448;2022-11-04T03:18:03;9.70;99.90
19813;DHT22;10066;48.108;11.448;2022-11-04T03:20:34;9.70;99.90
19813;DHT22;10066;48.108;11.448;2022-11-04T03:23:02;9.70;99.90
19813;DHT22;10066;48.108;11.448;2022-11-04T03:25:34;9.70;99.90
19813;DHT22;10066;48.108;11.448;2022-11-04T03:28:07;9.70;99.90
19813;DHT22;10066;48.108;11.448;2022-11-04T03:30:42;9.70;99.90
19813;DHT22;10066;48.108;11.448;2022-11-04T03:33:16;9.70;99.90
19813;DHT22;10066;48.108;11.448;2022-11-04T03:35:45;9.70;99.90
19813;DHT22;10066;48.108;11.448;2022-11-04T03:38:12;9.70;99.90
19813;DHT22;10066;48.108;11.448;2022-11-04T03:40:39;9.70;99.90
19813;DHT22;10066;48.108;11.448;2022-11-04T03:43:10;9.70;99.90
19813;DHT22;10066;48.108;11.448;2022-11-04T03:45:41;9.70;99.90
19813;DHT22;10066;48.108;11.448;2022-11-04T03:48:08;9.70;99.90
19813;DHT22;10066;48.108;11.448;2022-11-04T03:50:40;9.70;99.90
19813;DHT22;10066;48.108;11.448;2022-11-04T03:53:07;9.70;99.90
19813;DHT22;10066;48.108;11.448;2022-11-04T03:55:42;9.70;99.90
19813;DHT22;10066;48.108;11.448;2022-11-04T03:58:14;9.60;99.90
19813;DHT22;10066;48.108;11.448;2022-11-04T04:00:50;9.60;99.90
19813;DHT22;10066;48.108;11.448;2022-11-04T04:03:23;9.60;99.90
19813;DHT22;10066;48.108;11.448;2022-11-04T04:05:53;9.60;99.90
19813;DHT22;10066;48.108;11.448;2022-11-04T04:08:27;9.60;99.90
19813;DHT22;10066;48.108;11.448;2022-11-04T04:11:05;9.60;99.90
19813;DHT22;10066;48.108;11.448;2022-11-04T04:13:37;9.60;99.90
19813;DHT22;10066;48.108;11.448;2022-11-04T04:16:12;9.60;99.90
19813;DHT22;10066;48.108;11.448;2022-11-04T04:18:43;9.60;99.90
19813;DHT22;10066;48.108;11.448;2022-11-04T04:23:50;9.50;99.90
19813;DHT22;10066;48.108;11.448;2022-11-04T04:26:37;9.50;99.90
19813;DHT22;10066;48.108;11.448;2022-11-04T04:29:24;9.60;99.90
19813;DHT22;10066;48.108;11.448;2022-11-04T04:31:55;9.60;99.90
19813;DHT22;10066;48.108;11.448;2022-11-04T04:34:25;9.50;99.90
19813;DHT22;10066;48.108;11.448;2022-11-04T04:36:57;9.50;99.90
19813;DHT22;10066;48.108;11.448;2022-11-04T04:39:34;9.50;99.90
19813;DHT22;10066;48.108;11.448;2022-11-04T04:42:21;9.50;99.90
19813;DHT22;10066;48.108;11.448;2022-11-04T04:45:07;9.50;99.90
19813;DHT22;10066;48.108;11.448;2022-11-04T04:47:39;9.60;99.90
19813;DHT22;10066;48.108;11.448;2022-11-04T04:50:08;9.50;99.90
19813;DHT22;10066;48.108;11.448;2022-11-04T04:52:38;9.50;99.90
19813;DHT22;10066;48.108;11.448;2022-11-04T04:55:06;9.60;99.90
19813;DHT22;10066;48.108;11.448;2022-11-04T04:57:33;9.60;99.90
19813;DHT22;10066;48.108;11.448;2022-11-04T05:00:00;9.60;99.90
19813;DHT22;10066;48.108;11.448;2022-11-04T05:02:27;9.60;99.90
19813;DHT22;10066;48.108;11.448;2022-11-04T05:04:56;9.60;99.90
19813;DHT22;10066;48.108;11.448;2022-11-04T05:07:42;9.60;99.90
19813;DHT22;10066;48.108;11.448;2022-11-04T05:10:12;9.60;99.90
19813;DHT22;10066;48.108;11.448;2022-11-04T05:12:40;9.60;99.90
19813;DHT22;10066;48.108;11.448;2022-11-04T05:15:25;9.70;99.90
19813;DHT22;10066;48.108;11.448;2022-11-04T05:17:53;9.60;99.90
19813;DHT22;10066;48.108;11.448;2022-11-04T05:20:22;9.60;99.90
19813;DHT22;10066;48.108;11.448;2022-11-04T05:22:49;9.60;99.90
19813;DHT22;10066;48.108;11.448;2022-11-04T05:25:16;9.60;99.90
19813;DHT22;10066;48.108;11.448;2022-11-04T05:27:43;9.60;99.90
19813;DHT22;10066;48.108;11.448;2022-11-04T05:30:11;9.60;99.90
19813;DHT22;10066;48.108;11.448;2022-11-04T05:32:38;9.60;99.90
19813;DHT22;10066;48.108;11.448;2022-11-04T05:35:05;9.60;99.90
19813;DHT22;10066;48.108;11.448;2022-11-04T05:37:34;9.60;99.90
19813;DHT22;10066;48.108;11.448;2022-11-04T05:40:01;9.50;99.90
19813;DHT22;10066;48.108;11.448;2022-11-04T05:42:29;9.50;99.90
19813;DHT22;10066;48.108;11.448;2022-11-04T05:44:56;9.50;99.90
19813;DHT22;10066;48.108;11.448;2022-11-04T05:47:23;9.50;99.90
19813;DHT22;10066;48.108;11.448;2022-11-04T05:49:50;9.40;99.90
19813;DHT22;10066;48.108;11.448;2022-11-04T05:52:17;9.40;99.90
19813;DHT22;10066;48.108;11.448;2022-11-04T05:54:45;9.40;99.90
19813;DHT22;10066;48.108;11.448;2022-11-04T05:57:13;9.40;99.90
19813;DHT22;10066;48.108;11.448;2022-11-04T05:59:42;9.30;99.90
19813;DHT22;10066;48.108;11.448;2022-11-04T06:02:09;9.40;99.90
19813;DHT22;10066;48.108;11.448;2022-11-04T06:04:36;9.30;99.90
19813;DHT22;10066;48.108;11.448;2022-11-04T06:07:03;9.30;99.90
19813;DHT22;10066;48.108;11.448;2022-11-04T06:09:30;9.30;99.90
19813;DHT22;10066;48.108;11.448;2022-11-04T06:12:08;9.30;99.90
19813;DHT22;10066;48.108;11.448;2022-11-04T06:14:35;9.20;99.90
19813;DHT22;10066;48.108;11.448;2022-11-04T06:17:02;9.20;99.90
19813;DHT22;10066;48.108;11.448;2022-11-04T06:19:29;9.20;99.90
19813;DHT22;10066;48.108;11.448;2022-11-04T06:21:57;9.20;99.90
19813;DHT22;10066;48.108;11.448;2022-11-04T06:24:24;9.10;99.90
19813;DHT22;10066;48.108;11.448;2022-11-04T06:26:50;9.10;99.90
19813;DHT22;10066;48.108;11.448;2022-11-04T06:29:19;9.00;99.90
19813;DHT22;10066;48.108;11.448;2022-11-04T06:31:46;8.90;99.90
19813;DHT22;10066;48.108;11.448;2022-11-04T06:34:13;8.90;99.90
19813;DHT22;10066;48.108;11.448;2022-11-04T06:36:39;8.80;99.90
19813;DHT22;10066;48.108;11.448;2022-11-04T06:39:06;8.80;99.90
19813;DHT22;10066;48.108;11.448;2022-11-04T06:41:33;8.70;99.90
19813;DHT22;10066;48.108;11.448;2022-11-04T06:44:00;8.70;99.90
19813;DHT22;10066;48.108;11.448;2022-11-04T06:46:33;8.70;99.90
19813;DHT22;10066;48.108;11.448;2022-11-04T06:49:01;8.70;99.90
19813;DHT22;10066;48.108;11.448;2022-11-04T06:51:30;8.60;99.90
19813;DHT22;10066;48.108;11.448;2022-11-04T06:53:58;8.60;99.90
19813;DHT22;10066;48.108;11.448;2022-11-04T06:56:25;8.60;99.90
19813;DHT22;10066;48.108;11.448;2022-11-04T06:58:53;8.60;99.90
19813;DHT22;10066;48.108;11.448;2022-11-04T07:01:22;8.60;99.90
19813;DHT22;10066;48.108;11.448;2022-11-04T07:03:51;8.60;99.90
19813;DHT22;10066;48.108;11.448;2022-11-04T07:06:19;8.60;99.90
19813;DHT22;10066;48.108;11.448;2022-11-04T07:08:47;8.60;99.90
19813;DHT22;10066;48.108;11.448;2022-11-04T07:11:15;8.50;99.90
19813;DHT22;10066;48.108;11.448;2022-11-04T07:13:42;8.50;99.90
19813;DHT22;10066;48.108;11.448;2022-11-04T07:16:09;8.60;99.90
19813;DHT22;10066;48.108;11.448;2022-11-04T07:18:36;8.60;99.90
19813;DHT22;10066;48.108;11.448;2022-11-04T07:21:06;8.60;99.90
19813;DHT22;10066;48.108;11.448;2022-11-04T07:23:33;8.60;99.90
19813;DHT22;10066;48.108;11.448;2022-11-04T07:26:01;8.60;99.90
19813;DHT22;10066;48.108;11.448;2022-11-04T07:28:29;8.50;99.90
19813;DHT22;10066;48.108;11.448;2022-11-04T07:30:56;8.50;99.90
19813;DHT22;10066;48.108;11.448;2022-11-04T07:33:24;8.50;99.90
19813;DHT22;10066;48.108;11.448;2022-11-04T07:35:52;8.50;99.90
19813;DHT22;10066;48.108;11.448;2022-11-04T07:38:20;8.50;99.90
19813;DHT22;10066;48.108;11.448;2022-11-04T07:40:48;8.50;99.90
19813;DHT22;10066;48.108;11.448;2022-11-04T07:43:15;8.60;99.90
19813;DHT22;10066;48.108;11.448;2022-11-04T07:45:42;8.60;99.90
19813;DHT22;10066;48.108;11.448;2022-11-04T07:48:09;8.60;99.90
19813;DHT22;10066;48.108;11.448;2022-11-04T07:50:37;8.60;99.90
19813;DHT22;10066;48.108;11.448;2022-11-04T07:53:04;8.70;99.90
19813;DHT22;10066;48.108;11.448;2022-11-04T07:55:33;8.70;99.90
19813;DHT22;10066;48.108;11.448;2022-11-04T07:58:02;8.70;99.90
19813;DHT22;10066;48.108;11.448;2022-11-04T08:00:29;8.70;99.90
19813;DHT22;10066;48.108;11.448;2022-11-04T08:02:55;8.70;99.90
19813;DHT22;10066;48.108;11.448;2022-11-04T08:05:23;8.80;99.90
19813;DHT22;10066;48.108;11.448;2022-11-04T08:07:50;8.80;99.90
19813;DHT22;10066;48.108;11.448;2022-11-04T08:10:17;8.80;99.90
19813;DHT22;10066;48.108;11.448;2022-11-04T08:12:45;8.80;99.90
19813;DHT22;10066;48.108;11.448;2022-11-04T08:15:12;8.80;99.90
19813;DHT22;10066;48.108;11.448;2022-11-04T08:17:39;8.90;99.90
19813;DHT22;10066;48.108;11.448;2022-11-04T08:20:06;8.90;99.90
19813;DHT22;10066;48.108;11.448;2022-11-04T08:22:35;8.90;99.90
19813;DHT22;10066;48.108;11.448;2022-11-04T08:25:02;8.90;99.90
19813;DHT22;10066;48.108;11.448;2022-11-04T08:27:30;8.90;99.90
19813;DHT22;10066;48.108;11.448;2022-11-04T08:29:58;8.90;99.90
19813;DHT22;10066;48.108;11.448;2022-11-04T08:32:25;8.90;99.90
19813;DHT22;10066;48.108;11.448;2022-11-04T08:34:52;8.80;99.90
19813;DHT22;10066;48.108;11.448;2022-11-04T08:37:19;8.80;99.90
19813;DHT22;10066;48.108;11.448;2022-11-04T08:39:46;8.80;99.90
19813;DHT22;10066;48.108;11.448;2022-11-04T08:42:13;8.80;99.90
19813;DHT22;10066;48.108;11.448;2022-11-04T08:44:40;8.80;99.90
19813;DHT22;10066;48.108;11.448;2022-11-04T08:47:11;8.80;99.90
19813;DHT22;10066;48.108;11.448;2022-11-04T08:49:38;8.70;99.90
19813;DHT22;10066;48.108;11.448;2022-11-04T08:52:06;8.70;99.90
19813;DHT22;10066;48.108;11.448;2022-11-04T08:54:34;8.70;99.90
19813;DHT22;10066;48.108;11.448;2022-11-04T08:57:01;8.70;99.90
19813;DHT22;10066;48.108;11.448;2022-11-04T08:59:28;8.70;99.90
19813;DHT22;10066;48.108;11.448;2022-11-04T09:01:56;8.80;99.90
19813;DHT22;10066;48.108;11.448;2022-11-04T09:04:26;8.80;99.90
19813;DHT22;10066;48.108;11.448;2022-11-04T09:06:53;8.80;99.90
19813;DHT22;10066;48.108;11.448;2022-11-04T09:09:20;8.80;99.90
19813;DHT22;10066;48.108;11.448;2022-11-04T09:11:47;8.80;99.90
19813;DHT22;10066;48.108;11.448;2022-11-04T09:14:14;8.80;99.90
19813;DHT22;10066;48.108;11.448;2022-11-04T09:16:43;8.80;99.90
19813;DHT22;10066;48.108;11.448;2022-11-04T09:19:10;8.80;99.90
19813;DHT22;10066;48.108;11.448;2022-11-04T09:21:39;8.80;99.90
19813;DHT22;10066;48.108;11.448;2022-11-04T09:24:06;8.80;99.90
19813;DHT22;10066;48.108;11.448;2022-11-04T09:26:34;8.80;99.90
19813;DHT22;10066;48.108;11.448;2022-11-04T09:29:00;8.80;99.90
19813;DHT22;10066;48.108;11.448;2022-11-04T09:31:29;8.70;99.90
19813;DHT22;10066;48.108;11.448;2022-11-04T09:33:56;8.70;99.90
19813;DHT22;10066;48.108;11.448;2022-11-04T09:36:23;8.70;99.90
19813;DHT22;10066;48.108;11.448;2022-11-04T09:38:51;8.80;99.90
19813;DHT22;10066;48.108;11.448;2022-11-04T09:41:34;8.70;99.90
19813;DHT22;10066;48.108;11.448;2022-11-04T09:44:13;8.70;99.90
19813;DHT22;10066;48.108;11.448;2022-11-04T09:46:45;8.70;99.90
19813;DHT22;10066;48.108;11.448;2022-11-04T09:49:14;8.70;99.90
19813;DHT22;10066;48.108;11.448;2022-11-04T09:51:43;8.60;99.90
19813;DHT22;10066;48.108;11.448;2022-11-04T09:54:17;8.60;99.90
19813;DHT22;10066;48.108;11.448;2022-11-04T09:56:48;8.60;99.90
19813;DHT22;10066;48.108;11.448;2022-11-04T09:59:20;8.70;99.90
19813;DHT22;10066;48.108;11.448;2022-11-04T10:02:07;8.70;99.90
19813;DHT22;10066;48.108;11.448;2022-11-04T10:04:48;8.70;99.90
19813;DHT22;10066;48.108;11.448;2022-11-04T10:07:32;8.70;99.90
19813;DHT22;10066;48.108;11.448;2022-11-04T10:10:10;8.70;99.90
19813;DHT22;10066;48.108;11.448;2022-11-04T10:12:52;8.70;99.90
19813;DHT22;10066;48.108;11.448;2022-11-04T10:21:25;8.70;99.90
19813;DHT22;10066;48.108;11.448;2022-11-04T10:24:06;8.70;99.90
19813;DHT22;10066;48.108;11.448;2022-11-04T10:26:40;8.70;99.90
19813;DHT22;10066;48.108;11.448;2022-11-04T10:29:13;8.70;99.90
19813;DHT22;10066;48.108;11.448;2022-11-04T10:31:43;8.70;99.90
19813;DHT22;10066;48.108;11.448;2022-11-04T10:34:22;8.70;99.90
19813;DHT22;10066;48.108;11.448;2022-11-04T10:36:52;8.80;99.90
19813;DHT22;10066;48.108;11.448;2022-11-04T10:39:26;8.80;99.90
19813;DHT22;10066;48.108;11.448;2022-11-04T10:41:55;8.80;99.90
19813;DHT22;10066;48.108;11.448;2022-11-04T10:44:25;8.90;99.90
19813;DHT22;10066;48.108;11.448;2022-11-04T10:47:01;9.00;99.90
19813;DHT22;10066;48.108;11.448;2022-11-04T10:50:02;9.00;99.90
19813;DHT22;10066;48.108;11.448;2022-11-04T10:52:39;9.10;99.90
19813;DHT22;10066;48.108;11.448;2022-11-04T10:55:14;9.10;99.90
19813;DHT22;10066;48.108;11.448;2022-11-04T10:57:43;9.10;99.90
19813;DHT22;10066;48.108;11.448;2022-11-04T11:00:31;9.20;99.90
19813;DHT22;10066;48.108;11.448;2022-11-04T11:02:58;9.20;99.90
19813;DHT22;10066;48.108;11.448;2022-11-04T11:05:25;9.30;99.90
19813;DHT22;10066;48.108;11.448;2022-11-04T11:07:55;9.30;99.90
19813;DHT22;10066;48.108;11.448;2022-11-04T11:10:25;9.30;99.90
19813;DHT22;10066;48.108;11.448;2022-11-04T11:12:56;9.30;99.90
19813;DHT22;10066;48.108;11.448;2022-11-04T11:15:29;9.30;99.90
19813;DHT22;10066;48.108;11.448;2022-11-04T11:18:13;9.30;99.90
19813;DHT22;10066;48.108;11.448;2022-11-04T11:20:41;9.30;99.90
19813;DHT22;10066;48.108;11.448;2022-11-04T11:23:45;9.30;99.90
19813;DHT22;10066;48.108;11.448;2022-11-04T11:26:15;9.30;99.90
19813;DHT22;10066;48.108;11.448;2022-11-04T11:28:49;9.20;99.90
19813;DHT22;10066;48.108;11.448;2022-11-04T11:31:17;9.20;99.90
19813;DHT22;10066;48.108;11.448;2022-11-04T11:33:54;9.20;99.90
19813;DHT22;10066;48.108;11.448;2022-11-04T11:36:24;9.20;99.90
19813;DHT22;10066;48.108;11.448;2022-11-04T11:38:57;9.20;99.90
19813;DHT22;10066;48.108;11.448;2022-11-04T11:41:25;9.20;99.90
19813;DHT22;10066;48.108;11.448;2022-11-04T11:44:00;9.20;99.90
19813;DHT22;10066;48.108;11.448;2022-11-04T11:46:30;9.20;99.90
19813;DHT22;10066;48.108;11.448;2022-11-04T11:48:58;9.20;99.90
19813;DHT22;10066;48.108;11.448;2022-11-04T11:51:28;9.20;99.90
19813;DHT22;10066;48.108;11.448;2022-11-04T11:56:45;9.20;99.90
19813;DHT22;10066;48.108;11.448;2022-11-04T11:59:35;9.20;99.90
19813;DHT22;10066;48.108;11.448;2022-11-04T12:02:21;9.20;99.90
19813;DHT22;10066;48.108;11.448;2022-11-04T12:04:48;9.10;99.90
19813;DHT22;10066;48.108;11.448;2022-11-04T12:07:22;9.10;99.90
19813;DHT22;10066;48.108;11.448;2022-11-04T12:09:56;9.10;99.90
19813;DHT22;10066;48.108;11.448;2022-11-04T12:12:34;9.10;99.90
19813;DHT22;10066;48.108;11.448;2022-11-04T12:15:24;9.00;99.90
19813;DHT22;10066;48.108;11.448;2022-11-04T12:20:51;9.00;99.90
19813;DHT22;10066;48.108;11.448;2022-11-04T12:23:23;9.00;99.90
19813;DHT22;10066;48.108;11.448;2022-11-04T12:26:01;8.90;99.90
19813;DHT22;10066;48.108;11.448;2022-11-04T12:28:37;8.90;99.90
19813;DHT22;10066;48.108;11.448;2022-11-04T12:31:18;8.90;99.90
19813;DHT22;10066;48.108;11.448;2022-11-04T12:33:58;8.90;99.90
19813;DHT22;10066;48.108;11.448;2022-11-04T12:36:40;8.90;99.90
19813;DHT22;10066;48.108;11.448;2022-11-04T12:39:21;8.90;99.90
19813;DHT22;10066;48.108;11.448;2022-11-04T12:42:06;8.90;99.90
19813;DHT22;10066;48.108;11.448;2022-11-04T12:44:38;8.90;99.90
19813;DHT22;10066;48.108;11.448;2022-11-04T12:47:25;8.90;99.90
19813;DHT22;10066;48.108;11.448;2022-11-04T12:50:05;9.00;99.90
19813;DHT22;10066;48.108;11.448;2022-11-04T12:52:49;9.00;99.90
19813;DHT22;10066;48.108;11.448;2022-11-04T12:55:28;9.00;99.90
19813;DHT22;10066;48.108;11.448;2022-11-04T12:58:06;8.90;99.90
19813;DHT22;10066;48.108;11.448;2022-11-04T13:00:38;8.90;99.90
19813;DHT22;10066;48.108;11.448;2022-11-04T13:03:12;8.80;99.90
19813;DHT22;10066;48.108;11.448;2022-11-04T13:05:46;8.80;99.90
19813;DHT22;10066;48.108;11.448;2022-11-04T13:08:21;8.80;99.90
19813;DHT22;10066;48.108;11.448;2022-11-04T13:10:53;8.70;99.90
19813;DHT22;10066;48.108;11.448;2022-11-04T13:13:25;8.70;99.90
19813;DHT22;10066;48.108;11.448;2022-11-04T13:15:56;8.70;99.90
19813;DHT22;10066;48.108;11.448;2022-11-04T13:18:29;8.70;99.90
19813;DHT22;10066;48.108;11.448;2022-11-04T13:21:00;8.60;99.90
19813;DHT22;10066;48.108;11.448;2022-11-04T13:23:31;8.50;99.90
19813;DHT22;10066;48.108;11.448;2022-11-04T13:26:01;8.50;99.90
19813;DHT22;10066;48.108;11.448;2022-11-04T13:28:29;8.40;99.90
19813;DHT22;10066;48.108;11.448;2022-11-04T13:31:03;8.30;99.90
19813;DHT22;10066;48.108;11.448;2022-11-04T13:33:39;8.30;99.90
19813;DHT22;10066;48.108;11.448;2022-11-04T13:36:18;8.20;99.90
19813;DHT22;10066;48.108;11.448;2022-11-04T13:38:51;8.20;99.90
19813;DHT22;10066;48.108;11.448;2022-11-04T13:41:38;8.10;99.90
19813;DHT22;10066;48.108;11.448;2022-11-04T13:44:12;8.00;99.90
19813;DHT22;10066;48.108;11.448;2022-11-04T13:46:47;7.90;99.90
19813;DHT22;10066;48.108;11.448;2022-11-04T13:49:19;7.90;99.90
19813;DHT22;10066;48.108;11.448;2022-11-04T13:52:03;7.90;99.90
19813;DHT22;10066;48.108;11.448;2022-11-04T13:54:36;7.80;99.90
19813;DHT22;10066;48.108;11.448;2022-11-04T13:57:09;7.80;99.90
19813;DHT22;10066;48.108;11.448;2022-11-04T13:59:37;7.80;99.90
19813;DHT22;10066;48.108;11.448;2022-11-04T14:02:24;7.70;99.90
19813;DHT22;10066;48.108;11.448;2022-11-04T14:04:53;7.70;99.90
19813;DHT22;10066;48.108;11.448;2022-11-04T14:10:41;7.70;99.90
19813;DHT22;10066;48.108;11.448;2022-11-04T14:13:39;7.70;99.90
19813;DHT22;10066;48.108;11.448;2022-11-04T14:16:10;7.70;99.90
19813;DHT22;10066;48.108;11.448;2022-11-04T14:18:39;7.60;99.90
19813;DHT22;10066;48.108;11.448;2022-11-04T14:21:07;7.60;99.90
19813;DHT22;10066;48.108;11.448;2022-11-04T14:23:36;7.60;99.90
19813;DHT22;10066;48.108;11.448;2022-11-04T14:26:06;7.60;99.90
19813;DHT22;10066;48.108;11.448;2022-11-04T14:28:34;7.60;99.90
19813;DHT22;10066;48.108;11.448;2022-11-04T14:31:02;7.70;99.90
19813;DHT22;10066;48.108;11.448;2022-11-04T14:33:47;7.60;99.90
19813;DHT22;10066;48.108;11.448;2022-11-04T14:36:31;7.60;99.90
19813;DHT22;10066;48.108;11.448;2022-11-04T14:39:02;7.70;99.90
19813;DHT22;10066;48.108;11.448;2022-11-04T14:41:49;7.70;99.90
19813;DHT22;10066;48.108;11.448;2022-11-04T14:44:19;7.70;99.90
19813;DHT22;10066;48.108;11.448;2022-11-04T14:46:50;7.70;99.90
19813;DHT22;10066;48.108;11.448;2022-11-04T14:49:34;7.70;99.90
19813;DHT22;10066;48.108;11.448;2022-11-04T14:52:03;7.70;99.90
19813;DHT22;10066;48.108;11.448;2022-11-04T14:54:32;7.70;99.90
19813;DHT22;10066;48.108;11.448;2022-11-04T14:57:12;7.70;99.90
19813;DHT22;10066;48.108;11.448;2022-11-04T14:59:39;7.60;99.90
19813;DHT22;10066;48.108;11.448;2022-11-04T15:02:13;7.70;99.90
19813;DHT22;10066;48.108;11.448;2022-11-04T15:04:55;7.60;99.90
19813;DHT22;10066;48.108;11.448;2022-11-04T15:07:27;7.70;99.90
19813;DHT22;10066;48.108;11.448;2022-11-04T15:09:57;7.70;99.90
19813;DHT22;10066;48.108;11.448;2022-11-04T15:12:26;7.70;99.90
19813;DHT22;10066;48.108;11.448;2022-11-04T15:15:32;7.60;99.90
19813;DHT22;10066;48.108;11.448;2022-11-04T15:18:03;7.60;99.90
19813;DHT22;10066;48.108;11.448;2022-11-04T15:20:32;7.60;99.90
19813;DHT22;10066;48.108;11.448;2022-11-04T15:23:02;7.50;99.90
19813;DHT22;10066;48.108;11.448;2022-11-04T15:25:29;7.50;99.90
19813;DHT22;10066;48.108;11.448;2022-11-04T15:27:58;7.60;99.90
19813;DHT22;10066;48.108;11.448;2022-11-04T15:30:28;7.60;99.90
19813;DHT22;10066;48.108;11.448;2022-11-04T15:32:57;7.60;99.90
19813;DHT22;10066;48.108;11.448;2022-11-04T15:35:25;7.60;99.90
19813;DHT22;10066;48.108;11.448;2022-11-04T15:37:54;7.60;99.90
19813;DHT22;10066;48.108;11.448;2022-11-04T15:40:21;7.60;99.90
19813;DHT22;10066;48.108;11.448;2022-11-04T15:42:49;7.50;99.90
19813;DHT22;10066;48.108;11.448;2022-11-04T15:45:29;7.50;99.90
19813;DHT22;10066;48.108;11.448;2022-11-04T15:51:13;7.50;99.90
19813;DHT22;10066;48.108;11.448;2022-11-04T15:53:50;7.50;99.90
19813;DHT22;10066;48.108;11.448;2022-11-04T15:56:20;7.40;99.90
19813;DHT22;10066;48.108;11.448;2022-11-04T15:58:48;7.40;99.90
19813;DHT22;10066;48.108;11.448;2022-11-04T16:01:18;7.40;99.90
19813;DHT22;10066;48.108;11.448;2022-11-04T16:03:52;7.40;99.90
19813;DHT22;10066;48.108;11.448;2022-11-04T16:06:32;7.40;99.90
19813;DHT22;10066;48.108;11.448;2022-11-04T16:09:03;7.30;99.90
19813;DHT22;10066;48.108;11.448;2022-11-04T16:11:31;7.30;99.90
19813;DHT22;10066;48.108;11.448;2022-11-04T16:14:20;7.30;99.90
19813;DHT22;10066;48.108;11.448;2022-11-04T16:16:51;7.20;99.90
19813;DHT22;10066;48.108;11.448;2022-11-04T16:19:20;7.20;99.90
19813;DHT22;10066;48.108;11.448;2022-11-04T16:21:48;7.20;99.90